sensor_id;sensor_type;location;lat;lon;timestamp;P1;durP1;ratioP1;P2;durP2;ratioP2
12906;SDS011;6521;50.498;8.474;2022-12-18T00:01:50;31.73;;;14.47;;
12906;SDS011;6521;50.498;8.474;2022-12-18T00:04:22;34.90;;;14.73;;
12906;SDS011;6521;50.498;8.474;2022-12-18T00:06:54;39.53;;;16.07;;
12906;SDS011;6521;50.498;8.474;2022-12-18T00:09:25;36.00;;;15.93;;
12906;SDS011;6521;50.498;8.474;2022-12-18T00:11:56;39.43;;;15.83;;
12906;SDS011;6521;50.498;8.474;2022-12-18T00:14:27;32.93;;;14.77;;
12906;SDS011;6521;50.498;8.474;2022-12-18T00:16:58;31.03;;;14.93;;
12906;SDS011;6521;50.498;8.474;2022-12-18T00:19:30;38.50;;;15.37;;
12906;SDS011;6521;50.498;8.474;2022-12-18T00:22:01;27.77;;;14.47;;
12906;SDS011;6521;50.498;8.474;2022-12-18T00:24:32;35.07;;;15.20;;
12906;SDS011;6521;50.498;8.474;2022-12-18T00:27:03;32.30;;;15.07;;
12906;SDS011;6521;50.498;8.474;2022-12-18T00:29:33;38.20;;;16.60;;
12906;SDS011;6521;50.498;8.474;2022-12-18T00:32:04;39.13;;;16.33;;
12906;SDS011;6521;50.498;8.474;2022-12-18T00:34:35;36.90;;;17.20;;
12906;SDS011;6521;50.498;8.474;2022-12-18T00:37:06;33.90;;;15.47;;
12906;SDS011;6521;50.498;8.474;2022-12-18T00:39:38;36.40;;;15.73;;
12906;SDS011;6521;50.498;8.474;2022-12-18T00:42:09;32.57;;;14.70;;
12906;SDS011;6521;50.498;8.474;2022-12-18T00:44:59;38.40;;;16.87;;
12906;SDS011;6521;50.498;8.474;2022-12-18T00:47:30;37.83;;;15.20;;
12906;SDS011;6521;50.498;8.474;2022-12-18T00:50:00;31.00;;;13.57;;
12906;SDS011;6521;50.498;8.474;2022-12-18T00:52:31;37.43;;;15.23;;
12906;SDS011;6521;50.498;8.474;2022-12-18T00:55:02;33.10;;;14.73;;
12906;SDS011;6521;50.498;8.474;2022-12-18T00:57:33;37.17;;;14.77;;
12906;SDS011;6521;50.498;8.474;2022-12-18T01:00:04;32.50;;;14.83;;
12906;SDS011;6521;50.498;8.474;2022-12-18T01:02:39;34.87;;;16.23;;
12906;SDS011;6521;50.498;8.474;2022-12-18T01:05:12;32.70;;;15.20;;
12906;SDS011;6521;50.498;8.474;2022-12-18T01:07:43;30.40;;;14.43;;
12906;SDS011;6521;50.498;8.474;2022-12-18T01:10:14;34.67;;;16.07;;
12906;SDS011;6521;50.498;8.474;2022-12-18T01:12:45;37.70;;;15.87;;
12906;SDS011;6521;50.498;8.474;2022-12-18T01:15:16;39.60;;;15.97;;
12906;SDS011;6521;50.498;8.474;2022-12-18T01:17:47;35.90;;;14.67;;
12906;SDS011;6521;50.498;8.474;2022-12-18T01:20:18;38.47;;;14.07;;
12906;SDS011;6521;50.498;8.474;2022-12-18T01:22:49;40.30;;;15.40;;
12906;SDS011;6521;50.498;8.474;2022-12-18T01:25:20;34.47;;;15.30;;
12906;SDS011;6521;50.498;8.474;2022-12-18T01:27:50;35.87;;;16.07;;
12906;SDS011;6521;50.498;8.474;2022-12-18T01:30:21;42.13;;;16.53;;
12906;SDS011;6521;50.498;8.474;2022-12-18T01:32:52;39.07;;;16.60;;
12906;SDS011;6521;50.498;8.474;2022-12-18T01:35:23;42.23;;;17.43;;
12906;SDS011;6521;50.498;8.474;2022-12-18T01:37:54;41.50;;;17.83;;
12906;SDS011;6521;50.498;8.474;2022-12-18T01:40:25;42.57;;;16.67;;
12906;SDS011;6521;50.498;8.474;2022-12-18T01:42:56;38.23;;;16.07;;
12906;SDS011;6521;50.498;8.474;2022-12-18T01:45:28;41.80;;;16.13;;
12906;SDS011;6521;50.498;8.474;2022-12-18T01:48:02;36.37;;;16.43;;
12906;SDS011;6521;50.498;8.474;2022-12-18T01:50:38;37.63;;;16.20;;
12906;SDS011;6521;50.498;8.474;2022-12-18T01:53:15;40.47;;;17.27;;
12906;SDS011;6521;50.498;8.474;2022-12-18T01:55:53;41.50;;;17.23;;
12906;SDS011;6521;50.498;8.474;2022-12-18T01:58:41;41.97;;;16.93;;
12906;SDS011;6521;50.498;8.474;2022-12-18T02:01:20;44.97;;;17.30;;
12906;SDS011;6521;50.498;8.474;2022-12-18T02:03:52;42.07;;;18.60;;
12906;SDS011;6521;50.498;8.474;2022-12-18T02:06:33;34.90;;;16.03;;
12906;SDS011;6521;50.498;8.474;2022-12-18T02:09:18;45.00;;;16.57;;
12906;SDS011;6521;50.498;8.474;2022-12-18T02:14:34;36.33;;;15.70;;
12906;SDS011;6521;50.498;8.474;2022-12-18T02:17:22;34.30;;;15.43;;
12906;SDS011;6521;50.498;8.474;2022-12-18T02:29:00;36.40;;;15.80;;
12906;SDS011;6521;50.498;8.474;2022-12-18T02:31:45;40.27;;;16.40;;
12906;SDS011;6521;50.498;8.474;2022-12-18T02:34:22;42.43;;;15.97;;
12906;SDS011;6521;50.498;8.474;2022-12-18T02:36:58;34.73;;;15.83;;
12906;SDS011;6521;50.498;8.474;2022-12-18T02:39:32;32.77;;;14.73;;
12906;SDS011;6521;50.498;8.474;2022-12-18T02:42:08;40.90;;;17.03;;
12906;SDS011;6521;50.498;8.474;2022-12-18T02:44:44;35.23;;;15.33;;
12906;SDS011;6521;50.498;8.474;2022-12-18T02:47:19;32.93;;;14.83;;
12906;SDS011;6521;50.498;8.474;2022-12-18T02:49:58;37.63;;;16.37;;
12906;SDS011;6521;50.498;8.474;2022-12-18T02:52:45;43.13;;;16.33;;
12906;SDS011;6521;50.498;8.474;2022-12-18T03:01:22;40.67;;;15.43;;
12906;SDS011;6521;50.498;8.474;2022-12-18T03:04:04;36.80;;;15.90;;
12906;SDS011;6521;50.498;8.474;2022-12-18T03:06:46;38.67;;;16.37;;
12906;SDS011;6521;50.498;8.474;2022-12-18T03:09:22;38.30;;;16.00;;
12906;SDS011;6521;50.498;8.474;2022-12-18T03:12:17;40.93;;;16.23;;
12906;SDS011;6521;50.498;8.474;2022-12-18T03:15:04;40.30;;;16.43;;
12906;SDS011;6521;50.498;8.474;2022-12-18T03:17:56;35.27;;;14.67;;
12906;SDS011;6521;50.498;8.474;2022-12-18T03:20:42;32.53;;;13.83;;
12906;SDS011;6521;50.498;8.474;2022-12-18T03:23:21;34.87;;;14.07;;
12906;SDS011;6521;50.498;8.474;2022-12-18T03:25:56;36.47;;;15.27;;
12906;SDS011;6521;50.498;8.474;2022-12-18T03:28:30;39.67;;;16.90;;
12906;SDS011;6521;50.498;8.474;2022-12-18T03:31:09;32.27;;;15.13;;
12906;SDS011;6521;50.498;8.474;2022-12-18T03:33:43;32.43;;;14.30;;
12906;SDS011;6521;50.498;8.474;2022-12-18T03:36:19;33.17;;;13.40;;
12906;SDS011;6521;50.498;8.474;2022-12-18T03:38:50;30.40;;;14.37;;
12906;SDS011;6521;50.498;8.474;2022-12-18T03:41:32;36.60;;;15.43;;
12906;SDS011;6521;50.498;8.474;2022-12-18T03:52:49;28.53;;;11.93;;
12906;SDS011;6521;50.498;8.474;2022-12-18T03:55:27;24.73;;;12.37;;
12906;SDS011;6521;50.498;8.474;2022-12-18T03:58:05;28.57;;;12.53;;
12906;SDS011;6521;50.498;8.474;2022-12-18T04:00:52;28.30;;;12.03;;
12906;SDS011;6521;50.498;8.474;2022-12-18T04:03:25;30.20;;;13.63;;
12906;SDS011;6521;50.498;8.474;2022-12-18T04:06:00;27.43;;;13.07;;
12906;SDS011;6521;50.498;8.474;2022-12-18T04:08:33;24.20;;;12.60;;
12906;SDS011;6521;50.498;8.474;2022-12-18T04:11:09;25.57;;;12.00;;
12906;SDS011;6521;50.498;8.474;2022-12-18T04:13:42;30.30;;;13.07;;
12906;SDS011;6521;50.498;8.474;2022-12-18T04:16:19;28.87;;;13.27;;
12906;SDS011;6521;50.498;8.474;2022-12-18T04:18:53;29.33;;;12.67;;
12906;SDS011;6521;50.498;8.474;2022-12-18T04:21:26;29.63;;;13.70;;
12906;SDS011;6521;50.498;8.474;2022-12-18T04:23:58;29.27;;;10.93;;
12906;SDS011;6521;50.498;8.474;2022-12-18T04:26:29;25.50;;;11.60;;
12906;SDS011;6521;50.498;8.474;2022-12-18T04:29:13;28.87;;;12.83;;
12906;SDS011;6521;50.498;8.474;2022-12-18T04:31:44;28.73;;;13.53;;
12906;SDS011;6521;50.498;8.474;2022-12-18T04:34:15;27.40;;;13.23;;
12906;SDS011;6521;50.498;8.474;2022-12-18T04:36:52;28.60;;;13.17;;
12906;SDS011;6521;50.498;8.474;2022-12-18T04:39:25;28.10;;;13.60;;
12906;SDS011;6521;50.498;8.474;2022-12-18T04:41:58;27.40;;;12.30;;
12906;SDS011;6521;50.498;8.474;2022-12-18T04:44:29;32.37;;;12.87;;
12906;SDS011;6521;50.498;8.474;2022-12-18T04:47:00;26.60;;;12.67;;
12906;SDS011;6521;50.498;8.474;2022-12-18T04:49:31;28.13;;;11.77;;
12906;SDS011;6521;50.498;8.474;2022-12-18T04:52:02;27.17;;;12.53;;
12906;SDS011;6521;50.498;8.474;2022-12-18T04:54:32;26.77;;;12.67;;
12906;SDS011;6521;50.498;8.474;2022-12-18T04:57:03;25.07;;;12.90;;
12906;SDS011;6521;50.498;8.474;2022-12-18T04:59:34;29.77;;;14.40;;
12906;SDS011;6521;50.498;8.474;2022-12-18T05:02:04;32.50;;;13.00;;
12906;SDS011;6521;50.498;8.474;2022-12-18T05:04:35;29.67;;;13.10;;
12906;SDS011;6521;50.498;8.474;2022-12-18T05:07:06;28.93;;;13.00;;
12906;SDS011;6521;50.498;8.474;2022-12-18T05:09:37;36.30;;;14.50;;
12906;SDS011;6521;50.498;8.474;2022-12-18T05:12:07;31.37;;;14.60;;
12906;SDS011;6521;50.498;8.474;2022-12-18T05:14:38;29.37;;;13.30;;
12906;SDS011;6521;50.498;8.474;2022-12-18T05:17:09;34.43;;;14.67;;
12906;SDS011;6521;50.498;8.474;2022-12-18T05:19:40;28.97;;;14.33;;
12906;SDS011;6521;50.498;8.474;2022-12-18T05:22:10;29.93;;;13.33;;
12906;SDS011;6521;50.498;8.474;2022-12-18T05:24:42;31.97;;;13.43;;
12906;SDS011;6521;50.498;8.474;2022-12-18T05:27:13;33.33;;;14.63;;
12906;SDS011;6521;50.498;8.474;2022-12-18T05:29:43;34.37;;;15.10;;
12906;SDS011;6521;50.498;8.474;2022-12-18T05:32:14;35.63;;;14.30;;
12906;SDS011;6521;50.498;8.474;2022-12-18T05:34:45;38.63;;;15.23;;
12906;SDS011;6521;50.498;8.474;2022-12-18T05:37:15;31.13;;;13.87;;
12906;SDS011;6521;50.498;8.474;2022-12-18T05:39:47;34.07;;;14.20;;
12906;SDS011;6521;50.498;8.474;2022-12-18T05:42:17;28.37;;;13.70;;
12906;SDS011;6521;50.498;8.474;2022-12-18T05:44:49;33.80;;;15.57;;
12906;SDS011;6521;50.498;8.474;2022-12-18T05:47:20;30.80;;;13.97;;
12906;SDS011;6521;50.498;8.474;2022-12-18T05:49:50;26.80;;;13.37;;
12906;SDS011;6521;50.498;8.474;2022-12-18T05:52:21;34.83;;;13.53;;
12906;SDS011;6521;50.498;8.474;2022-12-18T05:54:52;27.73;;;13.73;;
12906;SDS011;6521;50.498;8.474;2022-12-18T05:57:22;31.33;;;13.83;;
12906;SDS011;6521;50.498;8.474;2022-12-18T05:59:53;30.87;;;13.50;;
12906;SDS011;6521;50.498;8.474;2022-12-18T06:02:24;30.83;;;12.77;;
12906;SDS011;6521;50.498;8.474;2022-12-18T06:04:55;23.57;;;11.93;;
12906;SDS011;6521;50.498;8.474;2022-12-18T06:07:25;24.80;;;12.33;;
12906;SDS011;6521;50.498;8.474;2022-12-18T06:09:56;27.47;;;11.83;;
12906;SDS011;6521;50.498;8.474;2022-12-18T06:12:27;25.70;;;12.00;;
12906;SDS011;6521;50.498;8.474;2022-12-18T06:14:58;30.20;;;12.47;;
12906;SDS011;6521;50.498;8.474;2022-12-18T06:17:32;23.17;;;12.47;;
12906;SDS011;6521;50.498;8.474;2022-12-18T06:20:04;31.23;;;13.33;;
12906;SDS011;6521;50.498;8.474;2022-12-18T06:22:36;27.07;;;13.53;;
12906;SDS011;6521;50.498;8.474;2022-12-18T06:25:07;26.77;;;13.47;;
12906;SDS011;6521;50.498;8.474;2022-12-18T06:27:38;30.17;;;13.50;;
12906;SDS011;6521;50.498;8.474;2022-12-18T06:30:10;29.43;;;13.23;;
12906;SDS011;6521;50.498;8.474;2022-12-18T06:32:41;28.57;;;13.10;;
12906;SDS011;6521;50.498;8.474;2022-12-18T06:35:12;34.97;;;13.90;;
12906;SDS011;6521;50.498;8.474;2022-12-18T06:37:43;27.93;;;13.33;;
12906;SDS011;6521;50.498;8.474;2022-12-18T06:40:13;27.37;;;11.80;;
12906;SDS011;6521;50.498;8.474;2022-12-18T06:42:44;34.17;;;13.03;;
12906;SDS011;6521;50.498;8.474;2022-12-18T06:45:15;43.57;;;13.37;;
12906;SDS011;6521;50.498;8.474;2022-12-18T06:47:46;37.27;;;12.00;;
12906;SDS011;6521;50.498;8.474;2022-12-18T06:50:17;37.73;;;13.17;;
12906;SDS011;6521;50.498;8.474;2022-12-18T06:52:49;75.20;;;15.50;;
12906;SDS011;6521;50.498;8.474;2022-12-18T06:55:20;38.63;;;12.73;;
12906;SDS011;6521;50.498;8.474;2022-12-18T06:57:51;28.03;;;12.83;;
12906;SDS011;6521;50.498;8.474;2022-12-18T07:00:21;35.27;;;14.47;;
12906;SDS011;6521;50.498;8.474;2022-12-18T07:02:52;36.53;;;13.73;;
12906;SDS011;6521;50.498;8.474;2022-12-18T07:05:23;39.43;;;14.83;;
12906;SDS011;6521;50.498;8.474;2022-12-18T07:07:54;34.73;;;13.43;;
12906;SDS011;6521;50.498;8.474;2022-12-18T07:10:24;31.87;;;13.57;;
12906;SDS011;6521;50.498;8.474;2022-12-18T07:12:55;25.93;;;11.80;;
12906;SDS011;6521;50.498;8.474;2022-12-18T07:15:26;37.43;;;13.53;;
12906;SDS011;6521;50.498;8.474;2022-12-18T07:17:57;41.07;;;12.37;;
12906;SDS011;6521;50.498;8.474;2022-12-18T07:20:29;28.50;;;12.87;;
12906;SDS011;6521;50.498;8.474;2022-12-18T07:23:03;30.60;;;13.33;;
12906;SDS011;6521;50.498;8.474;2022-12-18T07:25:35;30.73;;;13.17;;
12906;SDS011;6521;50.498;8.474;2022-12-18T07:28:07;30.23;;;11.70;;
12906;SDS011;6521;50.498;8.474;2022-12-18T07:30:38;47.07;;;14.33;;
12906;SDS011;6521;50.498;8.474;2022-12-18T07:33:09;39.60;;;14.07;;
12906;SDS011;6521;50.498;8.474;2022-12-18T07:35:40;29.80;;;11.93;;
12906;SDS011;6521;50.498;8.474;2022-12-18T07:38:10;30.33;;;13.33;;
12906;SDS011;6521;50.498;8.474;2022-12-18T07:40:41;34.13;;;12.93;;
12906;SDS011;6521;50.498;8.474;2022-12-18T07:43:12;28.80;;;11.90;;
12906;SDS011;6521;50.498;8.474;2022-12-18T07:45:43;26.10;;;12.03;;
12906;SDS011;6521;50.498;8.474;2022-12-18T07:48:13;25.20;;;13.03;;
12906;SDS011;6521;50.498;8.474;2022-12-18T07:50:44;26.43;;;13.17;;
12906;SDS011;6521;50.498;8.474;2022-12-18T07:53:15;27.17;;;12.57;;
12906;SDS011;6521;50.498;8.474;2022-12-18T07:55:46;32.17;;;13.10;;
12906;SDS011;6521;50.498;8.474;2022-12-18T07:58:16;32.73;;;13.07;;
12906;SDS011;6521;50.498;8.474;2022-12-18T08:00:47;24.20;;;12.73;;
12906;SDS011;6521;50.498;8.474;2022-12-18T08:03:18;36.73;;;13.87;;
12906;SDS011;6521;50.498;8.474;2022-12-18T08:05:49;31.73;;;13.27;;
12906;SDS011;6521;50.498;8.474;2022-12-18T08:08:20;33.03;;;14.07;;
12906;SDS011;6521;50.498;8.474;2022-12-18T08:10:51;28.00;;;12.07;;
12906;SDS011;6521;50.498;8.474;2022-12-18T08:13:22;34.10;;;14.13;;
12906;SDS011;6521;50.498;8.474;2022-12-18T08:15:57;25.13;;;13.17;;
12906;SDS011;6521;50.498;8.474;2022-12-18T08:18:29;40.10;;;13.40;;
12906;SDS011;6521;50.498;8.474;2022-12-18T08:23:40;31.70;;;13.47;;
12906;SDS011;6521;50.498;8.474;2022-12-18T08:26:12;42.40;;;13.13;;
12906;SDS011;6521;50.498;8.474;2022-12-18T08:28:43;27.53;;;12.63;;
12906;SDS011;6521;50.498;8.474;2022-12-18T08:31:14;25.83;;;13.00;;
12906;SDS011;6521;50.498;8.474;2022-12-18T08:33:45;26.70;;;12.30;;
12906;SDS011;6521;50.498;8.474;2022-12-18T08:36:19;33.53;;;13.90;;
12906;SDS011;6521;50.498;8.474;2022-12-18T08:38:50;36.83;;;14.40;;
12906;SDS011;6521;50.498;8.474;2022-12-18T08:41:22;29.13;;;13.10;;
12906;SDS011;6521;50.498;8.474;2022-12-18T08:43:53;38.03;;;14.43;;
12906;SDS011;6521;50.498;8.474;2022-12-18T08:46:42;35.80;;;13.97;;
12906;SDS011;6521;50.498;8.474;2022-12-18T08:49:14;33.97;;;12.97;;
12906;SDS011;6521;50.498;8.474;2022-12-18T08:51:46;26.80;;;12.70;;
12906;SDS011;6521;50.498;8.474;2022-12-18T08:54:17;29.03;;;13.77;;
12906;SDS011;6521;50.498;8.474;2022-12-18T08:56:48;31.17;;;12.70;;
12906;SDS011;6521;50.498;8.474;2022-12-18T08:59:19;28.20;;;12.77;;
12906;SDS011;6521;50.498;8.474;2022-12-18T09:01:52;32.37;;;12.37;;
12906;SDS011;6521;50.498;8.474;2022-12-18T09:04:24;32.13;;;13.67;;
12906;SDS011;6521;50.498;8.474;2022-12-18T09:06:55;27.43;;;13.47;;
12906;SDS011;6521;50.498;8.474;2022-12-18T09:09:25;28.70;;;13.07;;
12906;SDS011;6521;50.498;8.474;2022-12-18T09:11:56;27.27;;;12.07;;
12906;SDS011;6521;50.498;8.474;2022-12-18T09:14:27;25.90;;;13.13;;
12906;SDS011;6521;50.498;8.474;2022-12-18T09:16:57;30.57;;;12.90;;
12906;SDS011;6521;50.498;8.474;2022-12-18T09:19:28;23.37;;;12.50;;
12906;SDS011;6521;50.498;8.474;2022-12-18T09:22:00;28.60;;;13.07;;
12906;SDS011;6521;50.498;8.474;2022-12-18T09:24:31;27.37;;;13.13;;
12906;SDS011;6521;50.498;8.474;2022-12-18T09:27:02;27.90;;;13.50;;
12906;SDS011;6521;50.498;8.474;2022-12-18T09:29:33;30.70;;;13.70;;
12906;SDS011;6521;50.498;8.474;2022-12-18T09:32:05;27.90;;;13.87;;
12906;SDS011;6521;50.498;8.474;2022-12-18T09:34:36;36.50;;;16.67;;
12906;SDS011;6521;50.498;8.474;2022-12-18T09:37:07;27.73;;;13.67;;
12906;SDS011;6521;50.498;8.474;2022-12-18T09:39:38;27.23;;;13.60;;
12906;SDS011;6521;50.498;8.474;2022-12-18T09:42:12;30.13;;;14.53;;
12906;SDS011;6521;50.498;8.474;2022-12-18T09:44:54;37.30;;;14.77;;
12906;SDS011;6521;50.498;8.474;2022-12-18T09:47:27;28.87;;;14.77;;
12906;SDS011;6521;50.498;8.474;2022-12-18T09:50:18;26.60;;;14.63;;
12906;SDS011;6521;50.498;8.474;2022-12-18T09:53:05;35.13;;;14.97;;
12906;SDS011;6521;50.498;8.474;2022-12-18T09:55:45;29.57;;;16.10;;
12906;SDS011;6521;50.498;8.474;2022-12-18T09:58:19;36.10;;;16.47;;
12906;SDS011;6521;50.498;8.474;2022-12-18T10:00:57;34.37;;;15.37;;
12906;SDS011;6521;50.498;8.474;2022-12-18T10:03:28;29.90;;;15.97;;
12906;SDS011;6521;50.498;8.474;2022-12-18T10:08:34;30.13;;;16.10;;
12906;SDS011;6521;50.498;8.474;2022-12-18T10:11:47;32.50;;;15.10;;
12906;SDS011;6521;50.498;8.474;2022-12-18T10:14:35;33.23;;;15.53;;
12906;SDS011;6521;50.498;8.474;2022-12-18T10:17:25;27.63;;;14.60;;
12906;SDS011;6521;50.498;8.474;2022-12-18T10:23:12;31.97;;;17.47;;
12906;SDS011;6521;50.498;8.474;2022-12-18T10:25:59;36.07;;;15.90;;
12906;SDS011;6521;50.498;8.474;2022-12-18T10:28:40;27.70;;;14.17;;
12906;SDS011;6521;50.498;8.474;2022-12-18T10:31:19;25.47;;;14.73;;
12906;SDS011;6521;50.498;8.474;2022-12-18T10:33:53;32.40;;;15.97;;
12906;SDS011;6521;50.498;8.474;2022-12-18T10:36:24;35.20;;;15.20;;
12906;SDS011;6521;50.498;8.474;2022-12-18T10:39:19;31.57;;;16.00;;
12906;SDS011;6521;50.498;8.474;2022-12-18T10:42:09;32.53;;;15.47;;
12906;SDS011;6521;50.498;8.474;2022-12-18T10:44:55;30.87;;;15.80;;
12906;SDS011;6521;50.498;8.474;2022-12-18T10:47:33;28.73;;;15.27;;
12906;SDS011;6521;50.498;8.474;2022-12-18T10:50:10;28.37;;;15.53;;
12906;SDS011;6521;50.498;8.474;2022-12-18T10:52:59;36.60;;;15.73;;
12906;SDS011;6521;50.498;8.474;2022-12-18T10:55:35;29.23;;;15.47;;
12906;SDS011;6521;50.498;8.474;2022-12-18T10:58:16;30.83;;;15.33;;
12906;SDS011;6521;50.498;8.474;2022-12-18T11:03:39;24.53;;;14.90;;
12906;SDS011;6521;50.498;8.474;2022-12-18T11:06:13;45.73;;;16.67;;
12906;SDS011;6521;50.498;8.474;2022-12-18T11:11:35;25.90;;;14.90;;
12906;SDS011;6521;50.498;8.474;2022-12-18T11:14:15;23.10;;;13.87;;
12906;SDS011;6521;50.498;8.474;2022-12-18T11:16:58;43.00;;;15.77;;
12906;SDS011;6521;50.498;8.474;2022-12-18T11:19:34;28.77;;;14.77;;
12906;SDS011;6521;50.498;8.474;2022-12-18T11:22:20;24.43;;;15.00;;
12906;SDS011;6521;50.498;8.474;2022-12-18T11:27:26;27.93;;;15.77;;
12906;SDS011;6521;50.498;8.474;2022-12-18T11:30:09;29.17;;;14.83;;
12906;SDS011;6521;50.498;8.474;2022-12-18T11:33:09;28.60;;;15.33;;
12906;SDS011;6521;50.498;8.474;2022-12-18T11:38:30;26.37;;;15.73;;
12906;SDS011;6521;50.498;8.474;2022-12-18T11:41:04;38.53;;;16.63;;
12906;SDS011;6521;50.498;8.474;2022-12-18T11:44:16;38.73;;;15.83;;
12906;SDS011;6521;50.498;8.474;2022-12-18T11:47:09;28.40;;;16.13;;
12906;SDS011;6521;50.498;8.474;2022-12-18T11:49:53;30.80;;;16.97;;
12906;SDS011;6521;50.498;8.474;2022-12-18T11:52:36;35.97;;;17.17;;
12906;SDS011;6521;50.498;8.474;2022-12-18T11:55:13;30.83;;;16.83;;
12906;SDS011;6521;50.498;8.474;2022-12-18T12:00:28;34.20;;;16.03;;
12906;SDS011;6521;50.498;8.474;2022-12-18T12:17:35;34.00;;;18.10;;
12906;SDS011;6521;50.498;8.474;2022-12-18T12:37:29;34.80;;;19.07;;
12906;SDS011;6521;50.498;8.474;2022-12-18T12:40:44;37.13;;;19.23;;
12906;SDS011;6521;50.498;8.474;2022-12-18T12:46:04;33.67;;;19.87;;
12906;SDS011;6521;50.498;8.474;2022-12-18T12:48:52;40.20;;;20.00;;
12906;SDS011;6521;50.498;8.474;2022-12-18T12:51:34;34.13;;;18.93;;
12906;SDS011;6521;50.498;8.474;2022-12-18T12:54:11;35.13;;;20.47;;
12906;SDS011;6521;50.498;8.474;2022-12-18T12:59:47;39.40;;;20.67;;
12906;SDS011;6521;50.498;8.474;2022-12-18T13:05:24;38.77;;;20.10;;
12906;SDS011;6521;50.498;8.474;2022-12-18T13:10:37;37.50;;;21.03;;
12906;SDS011;6521;50.498;8.474;2022-12-18T13:13:10;44.03;;;21.37;;
12906;SDS011;6521;50.498;8.474;2022-12-18T13:15:43;43.07;;;21.27;;
12906;SDS011;6521;50.498;8.474;2022-12-18T13:18:19;38.80;;;20.33;;
12906;SDS011;6521;50.498;8.474;2022-12-18T13:34:19;56.27;;;20.97;;
12906;SDS011;6521;50.498;8.474;2022-12-18T13:36:51;41.77;;;21.70;;
12906;SDS011;6521;50.498;8.474;2022-12-18T13:39:25;43.83;;;22.77;;
12906;SDS011;6521;50.498;8.474;2022-12-18T13:44:39;46.87;;;21.73;;
12906;SDS011;6521;50.498;8.474;2022-12-18T13:47:24;44.57;;;21.43;;
12906;SDS011;6521;50.498;8.474;2022-12-18T13:49:59;59.10;;;21.93;;
12906;SDS011;6521;50.498;8.474;2022-12-18T13:52:34;45.53;;;21.40;;
12906;SDS011;6521;50.498;8.474;2022-12-18T13:55:14;47.53;;;21.83;;
12906;SDS011;6521;50.498;8.474;2022-12-18T13:57:48;43.27;;;21.43;;
12906;SDS011;6521;50.498;8.474;2022-12-18T14:02:52;50.03;;;23.00;;
12906;SDS011;6521;50.498;8.474;2022-12-18T14:07:54;46.33;;;23.07;;
12906;SDS011;6521;50.498;8.474;2022-12-18T14:10:29;40.40;;;21.47;;
12906;SDS011;6521;50.498;8.474;2022-12-18T14:13:04;44.80;;;23.00;;
12906;SDS011;6521;50.498;8.474;2022-12-18T14:15:41;46.90;;;21.87;;
12906;SDS011;6521;50.498;8.474;2022-12-18T14:20:44;43.77;;;22.13;;
12906;SDS011;6521;50.498;8.474;2022-12-18T14:29:01;46.63;;;22.30;;
12906;SDS011;6521;50.498;8.474;2022-12-18T14:32:31;44.33;;;21.97;;
12906;SDS011;6521;50.498;8.474;2022-12-18T14:34:51;48.77;;;22.37;;
12906;SDS011;6521;50.498;8.474;2022-12-18T14:37:26;48.07;;;22.73;;
12906;SDS011;6521;50.498;8.474;2022-12-18T14:40:01;46.30;;;22.40;;
12906;SDS011;6521;50.498;8.474;2022-12-18T14:42:34;46.30;;;21.60;;
12906;SDS011;6521;50.498;8.474;2022-12-18T14:50:42;50.93;;;23.50;;
12906;SDS011;6521;50.498;8.474;2022-12-18T14:53:18;45.23;;;21.37;;
12906;SDS011;6521;50.498;8.474;2022-12-18T14:55:52;63.67;;;21.83;;
12906;SDS011;6521;50.498;8.474;2022-12-18T14:58:23;56.17;;;22.63;;
12906;SDS011;6521;50.498;8.474;2022-12-18T15:00:54;45.47;;;21.40;;
12906;SDS011;6521;50.498;8.474;2022-12-18T15:03:26;45.23;;;21.97;;
12906;SDS011;6521;50.498;8.474;2022-12-18T15:05:58;44.10;;;21.50;;
12906;SDS011;6521;50.498;8.474;2022-12-18T15:08:46;45.67;;;22.37;;
12906;SDS011;6521;50.498;8.474;2022-12-18T15:11:28;44.87;;;22.47;;
12906;SDS011;6521;50.498;8.474;2022-12-18T15:14:22;44.27;;;19.67;;
12906;SDS011;6521;50.498;8.474;2022-12-18T15:17:19;75.93;;;22.47;;
12906;SDS011;6521;50.498;8.474;2022-12-18T15:19:53;50.27;;;21.47;;
12906;SDS011;6521;50.498;8.474;2022-12-18T15:22:36;50.40;;;21.30;;
12906;SDS011;6521;50.498;8.474;2022-12-18T15:25:21;54.70;;;22.37;;
12906;SDS011;6521;50.498;8.474;2022-12-18T15:33:43;56.13;;;22.43;;
12906;SDS011;6521;50.498;8.474;2022-12-18T15:36:30;48.33;;;21.03;;
12906;SDS011;6521;50.498;8.474;2022-12-18T15:39:01;52.50;;;21.13;;
12906;SDS011;6521;50.498;8.474;2022-12-18T15:41:32;54.00;;;22.27;;
12906;SDS011;6521;50.498;8.474;2022-12-18T15:44:21;57.73;;;27.07;;
12906;SDS011;6521;50.498;8.474;2022-12-18T15:46:55;54.40;;;26.07;;
12906;SDS011;6521;50.498;8.474;2022-12-18T15:49:25;48.23;;;23.33;;
12906;SDS011;6521;50.498;8.474;2022-12-18T15:51:58;49.67;;;23.03;;
12906;SDS011;6521;50.498;8.474;2022-12-18T15:54:30;50.43;;;23.83;;
12906;SDS011;6521;50.498;8.474;2022-12-18T15:57:19;46.93;;;21.70;;
12906;SDS011;6521;50.498;8.474;2022-12-18T15:59:56;48.37;;;21.87;;
12906;SDS011;6521;50.498;8.474;2022-12-18T16:02:28;44.67;;;21.30;;
12906;SDS011;6521;50.498;8.474;2022-12-18T16:04:59;42.60;;;20.10;;
12906;SDS011;6521;50.498;8.474;2022-12-18T16:07:29;49.00;;;22.60;;
12906;SDS011;6521;50.498;8.474;2022-12-18T16:10:00;42.60;;;21.33;;
12906;SDS011;6521;50.498;8.474;2022-12-18T16:12:31;46.10;;;22.43;;
12906;SDS011;6521;50.498;8.474;2022-12-18T16:15:02;48.83;;;22.70;;
12906;SDS011;6521;50.498;8.474;2022-12-18T16:17:35;45.70;;;22.67;;
12906;SDS011;6521;50.498;8.474;2022-12-18T16:20:15;43.27;;;23.27;;
12906;SDS011;6521;50.498;8.474;2022-12-18T16:22:48;43.00;;;20.20;;
12906;SDS011;6521;50.498;8.474;2022-12-18T16:25:20;47.63;;;21.20;;
12906;SDS011;6521;50.498;8.474;2022-12-18T16:27:53;44.40;;;20.93;;
12906;SDS011;6521;50.498;8.474;2022-12-18T16:30:27;40.47;;;21.00;;
12906;SDS011;6521;50.498;8.474;2022-12-18T16:33:00;42.87;;;20.30;;
12906;SDS011;6521;50.498;8.474;2022-12-18T16:35:31;46.20;;;21.20;;
12906;SDS011;6521;50.498;8.474;2022-12-18T16:38:02;51.53;;;20.70;;
12906;SDS011;6521;50.498;8.474;2022-12-18T16:40:33;44.83;;;21.90;;
12906;SDS011;6521;50.498;8.474;2022-12-18T16:43:24;46.37;;;22.13;;
12906;SDS011;6521;50.498;8.474;2022-12-18T16:45:55;47.73;;;23.60;;
12906;SDS011;6521;50.498;8.474;2022-12-18T16:48:27;45.50;;;22.00;;
12906;SDS011;6521;50.498;8.474;2022-12-18T16:51:02;41.40;;;21.73;;
12906;SDS011;6521;50.498;8.474;2022-12-18T16:53:34;45.33;;;20.20;;
12906;SDS011;6521;50.498;8.474;2022-12-18T16:56:05;45.20;;;20.30;;
12906;SDS011;6521;50.498;8.474;2022-12-18T16:58:36;43.10;;;21.77;;
12906;SDS011;6521;50.498;8.474;2022-12-18T17:01:07;40.03;;;20.47;;
12906;SDS011;6521;50.498;8.474;2022-12-18T17:03:39;46.00;;;21.97;;
12906;SDS011;6521;50.498;8.474;2022-12-18T17:06:10;41.87;;;20.77;;
12906;SDS011;6521;50.498;8.474;2022-12-18T17:08:41;44.13;;;21.53;;
12906;SDS011;6521;50.498;8.474;2022-12-18T17:11:12;44.30;;;20.57;;
12906;SDS011;6521;50.498;8.474;2022-12-18T17:13:43;45.50;;;21.53;;
12906;SDS011;6521;50.498;8.474;2022-12-18T17:16:14;43.30;;;21.50;;
12906;SDS011;6521;50.498;8.474;2022-12-18T17:18:44;40.77;;;20.07;;
12906;SDS011;6521;50.498;8.474;2022-12-18T17:21:16;41.47;;;21.40;;
12906;SDS011;6521;50.498;8.474;2022-12-18T17:23:47;47.27;;;23.63;;
12906;SDS011;6521;50.498;8.474;2022-12-18T17:26:18;47.20;;;23.00;;
12906;SDS011;6521;50.498;8.474;2022-12-18T17:28:48;44.70;;;21.00;;
12906;SDS011;6521;50.498;8.474;2022-12-18T17:31:20;40.03;;;19.80;;